Time;durP1;ratioP1;P1;durP2;ratioP2;P2;SDS_P1;SDS_P2;PMS_P1;PMS_P2;Temp;Humidity;BMP_temperature;BMP_pressure;BME280_temperature;BME280_humidity;BME280_pressure;Samples;Min_cycle;Max_cycle;Signal;HPM_P1;HPM_P2
2021/12/20 00:01:03;;;;;;;;;;;;;;;;;;5088608;28;46193;-74
2021/12/20 00:03:32;;;;;;;;;;;;;;;;;;5072330;28;45755;-74
2021/12/20 00:05:59;;;;;;;;;;;;;;;;;;5087493;28;45746;-74
2021/12/20 00:08:27;;;;;;;;;;;;;;;;;;5073017;28;43692;-74
2021/12/20 00:10:54;;;;;;;;;;;;;;;;;;5073419;28;46007;-74
2021/12/20 00:13:22;;;;;;;;;;;;;;;;;;5072903;28;44975;-74
2021/12/20 00:15:49;;;;;;;;;;;;;;;;;;5071938;28;46413;-74
2021/12/20 00:18:16;;;;;;;;;;;;;;;;;;5073064;28;44638;-73
2021/12/20 00:20:43;;;;;;;;;;;;;;;;;;5073110;28;46474;-73
2021/12/20 00:23:11;;;;;;;;;;;;;;;;;;5072803;28;48009;-73
2021/12/20 00:25:39;;;;;;;;;;;;;;;;;;5071978;28;47389;-74
2021/12/20 00:28:05;;;;;;;;;;;;;;;;;;5071632;28;43875;-73
2021/12/20 00:30:33;;;;;;;;;;;;;;;;;;5087277;28;44975;-74
2021/12/20 00:32:59;;;;;;;;;;;;;;;;;;5087279;28;48046;-74
2021/12/20 00:35:30;;;;;;;;;;;;;;;;;;5087401;28;48699;-73
2021/12/20 00:40:43;;;;;;;;;;;;;;;;;;5070676;28;46435;-73
2021/12/20 00:43:11;;;;;;;;;;;;;;;;;;5071424;28;46985;-73
2021/12/20 00:45:39;;;;;;;;;;;;;;;;;;5072528;28;47362;-73
2021/12/20 00:48:06;;;;;;;;;;;;;;;;;;5073501;28;44667;-74
2021/12/20 00:50:35;;;;;;;;;;;;;;;;;;5072651;28;43772;-73
2021/12/20 00:53:01;;;;;;;;;;;;;;;;;;5072233;28;46998;-73
2021/12/20 00:55:29;;;;;;;;;;;;;;;;;;5071898;28;47408;-73
2021/12/20 00:57:55;;;;;;;;;;;;;;;;;;5071602;28;45311;-73
2021/12/20 01:00:21;;;;;;;;;;;;;;;;;;5072352;28;45360;-73
2021/12/20 01:02:47;;;;;;;;;;;;;;;;;;5071807;28;46886;-74
2021/12/20 01:05:14;;;;;;;;;;;;;;;;;;5070775;28;46561;-74
2021/12/20 01:07:40;;;;;;;;;;;;;;;;;;5071090;28;44549;-74
2021/12/20 01:10:09;;;;;;;;;;;;;;;;;;5071503;28;46871;-74
2021/12/20 01:12:48;;;;;;;;;;;;;;;;;;5071486;28;47944;-74
2021/12/20 01:15:15;;;;;;;;;;;;;;;;;;5071448;28;46382;-73
2021/12/20 01:17:42;;;;;;;;;;;;;;;;;;5074554;28;43694;-74
2021/12/20 01:20:19;;;;;;;;;;;;;;;;;;5075554;28;45582;-73
2021/12/20 01:22:46;;;;;;;;;;;;;;;;;;5075724;28;48305;-74
2021/12/20 01:25:18;;;;;;;;;;;;;;;;;;5092551;28;44505;-74
2021/12/20 01:27:45;;;;;;;;;;;;;;;;;;5076272;28;43594;-74
2021/12/20 01:30:13;;;;;;;;;;;;;;;;;;5091266;28;45098;-73
2021/12/20 01:32:41;;;;;;;;;;;;;;;;;;5075640;28;45763;-73
2021/12/20 01:35:07;;;;;;;;;;;;;;;;;;5075457;28;46815;-73
2021/12/20 01:37:35;;;;;;;;;;;;;;;;;;5075832;28;42342;-74
2021/12/20 01:40:02;;;;;;;;;;;;;;;;;;5091655;28;45952;-74
2021/12/20 01:42:33;;;;;;;;;;;;;;;;;;5075602;28;46403;-74
2021/12/20 01:44:59;;;;;;;;;;;;;;;;;;5075394;28;44498;-74
2021/12/20 01:47:34;;;;;;;;;;;;;;;;;;5075898;28;44664;-74
2021/12/20 01:52:39;;;;;;;;;;;;;;;;;;5076244;28;45769;-74
2021/12/20 01:55:07;;;;;;;;;;;;;;;;;;5075544;28;46138;-74
2021/12/20 01:57:34;;;;;;;;;;;;;;;;;;5075710;28;43928;-74
2021/12/20 02:00:01;;;;;;;;;;;;;;;;;;5075403;28;44978;-73
2021/12/20 02:02:28;;;;;;;;;;;;;;;;;;5075507;28;45804;-73
2021/12/20 02:05:01;;;;;;;;;;;;;;;;;;5074786;28;47514;-73
2021/12/20 02:07:51;;;;;;;;;;;;;;;;;;5074982;28;44559;-73
2021/12/20 02:10:18;;;;;;;;;;;;;;;;;;5074705;28;46265;-73
2021/12/20 02:12:46;;;;;;;;;;;;;;;;;;5074070;28;46911;-73
2021/12/20 02:15:12;;;;;;;;;;;;;;;;;;5074240;28;47793;-73
2021/12/20 02:17:40;;;;;;;;;;;;;;;;;;5074018;28;43593;-73
2021/12/20 02:20:06;;;;;;;;;;;;;;;;;;5074242;28;45441;-72
2021/12/20 02:22:32;;;;;;;;;;;;;;;;;;5073967;28;47421;-73
2021/12/20 02:24:59;;;;;;;;;;;;;;;;;;5074239;28;44982;-73
2021/12/20 02:27:26;;;;;;;;;;;;;;;;;;5091371;28;43551;-73
2021/12/20 02:30:15;;;;;;;;;;;;;;;;;;5075332;28;46095;-73
2021/12/20 02:38:13;;;;;;;;;;;;;;;;;;5074906;28;44532;-73
2021/12/20 02:40:42;;;;;;;;;;;;;;;;;;5075361;28;46521;-73
2021/12/20 02:43:13;;;;;;;;;;;;;;;;;;5074758;28;47270;-73
2021/12/20 02:45:42;;;;;;;;;;;;;;;;;;5074056;28;45048;-73
2021/12/20 02:48:11;;;;;;;;;;;;;;;;;;5075110;28;44808;-73
2021/12/20 02:50:37;;;;;;;;;;;;;;;;;;5074149;28;44973;-73
2021/12/20 02:53:04;;;;;;;;;;;;;;;;;;5074483;28;46986;-73
2021/12/20 02:55:30;;;;;;;;;;;;;;;;;;5074695;28;47384;-73
2021/12/20 02:57:57;;;;;;;;;;;;;;;;;;5074748;28;44918;-73
2021/12/20 03:00:28;;;;;;;;;;;;;;;;;;5090749;28;43307;-73
2021/12/20 03:02:55;;;;;;;;;;;;;;;;;;5090429;28;46099;-74
2021/12/20 03:05:22;;;;;;;;;;;;;;;;;;5090601;28;46517;-74
2021/12/20 03:07:51;;;;;;;;;;;;;;;;;;5074168;28;43703;-73
2021/12/20 03:10:21;;;;;;;;;;;;;;;;;;5074997;28;45034;-73
2021/12/20 03:12:51;;;;;;;;;;;;;;;;;;5073681;28;48112;-74
2021/12/20 03:15:22;;;;;;;;;;;;;;;;;;5073959;28;47850;-73
2021/12/20 03:17:58;;;;;;;;;;;;;;;;;;5074566;28;43160;-74
2021/12/20 03:20:25;;;;;;;;;;;;;;;;;;5073412;28;46081;-74
2021/12/20 03:22:52;;;;;;;;;;;;;;;;;;5089180;28;46954;-74
2021/12/20 03:25:23;;;;;;;;;;;;;;;;;;5073224;28;47383;-74
2021/12/20 03:27:51;;;;;;;;;;;;;;;;;;5089255;28;44652;-74
2021/12/20 03:30:21;;;;;;;;;;;;;;;;;;5089265;28;46093;-74
2021/12/20 03:32:48;;;;;;;;;;;;;;;;;;5073222;28;46980;-75
2021/12/20 03:35:15;;;;;;;;;;;;;;;;;;5088721;28;47709;-74
2021/12/20 03:37:43;;;;;;;;;;;;;;;;;;5073429;28;44663;-73
2021/12/20 03:40:14;;;;;;;;;;;;;;;;;;5073901;28;44969;-73
2021/12/20 03:42:43;;;;;;;;;;;;;;;;;;5089141;28;46874;-74
2021/12/20 03:45:14;;;;;;;;;;;;;;;;;;5074097;28;46450;-74
2021/12/20 03:47:40;;;;;;;;;;;;;;;;;;5089236;28;43558;-74
2021/12/20 03:50:07;;;;;;;;;;;;;;;;;;5086063;28;43808;-74
2021/12/20 03:52:33;;;;;;;;;;;;;;;;;;5053460;28;47019;-73
2021/12/20 03:55:00;;;;;;;;;;;;;;;;;;5053678;28;44514;-74
2021/12/20 03:57:28;;;;;;;;;;;;;;;;;;5052496;28;44550;-74
2021/12/20 03:59:55;;;;;;;;;;;;;;;;;;5052569;28;43263;-74
2021/12/20 04:02:24;;;;;;;;;;;;;;;;;;5052508;28;45070;-74
2021/12/20 04:04:52;;;;;;;;;;;;;;;;;;5052379;28;47613;-74
2021/12/20 04:07:18;;;;;;;;;;;;;;;;;;5053154;28;42683;-74
2021/12/20 04:09:45;;;;;;;;;;;;;;;;;;5052086;28;45022;-73
2021/12/20 04:12:12;;;;;;;;;;;;;;;;;;5053256;28;47382;-73
2021/12/20 04:14:39;;;;;;;;;;;;;;;;;;5052882;28;43838;-73
2021/12/20 04:17:06;;;;;;;;;;;;;;;;;;5053695;28;45185;-73
2021/12/20 04:19:33;;;;;;;;;;;;;;;;;;5053813;28;42883;-74
2021/12/20 04:21:59;;;;;;;;;;;;;;;;;;5053387;28;47014;-73
2021/12/20 04:24:27;;;;;;;;;;;;;;;;;;5053689;28;47635;-73
2021/12/20 04:26:53;;;;;;;;;;;;;;;;;;5053437;28;44889;-73
2021/12/20 04:29:19;;;;;;;;;;;;;;;;;;5053277;28;43961;-74
2021/12/20 04:31:46;;;;;;;;;;;;;;;;;;5053701;28;47926;-73
2021/12/20 04:34:13;;;;;;;;;;;;;;;;;;5052503;28;43634;-74
2021/12/20 04:36:40;;;;;;;;;;;;;;;;;;5053033;28;41716;-73
2021/12/20 04:39:12;;;;;;;;;;;;;;;;;;5052121;28;45954;-73
2021/12/20 04:41:40;;;;;;;;;;;;;;;;;;5052571;28;46015;-74
2021/12/20 04:44:06;;;;;;;;;;;;;;;;;;5052724;28;46254;-74
2021/12/20 04:46:32;;;;;;;;;;;;;;;;;;5051805;28;43684;-73
2021/12/20 04:48:59;;;;;;;;;;;;;;;;;;5052796;28;46470;-73
2021/12/20 04:51:25;;;;;;;;;;;;;;;;;;5088187;28;48470;-73
2021/12/20 04:53:54;;;;;;;;;;;;;;;;;;5091679;28;47171;-73
2021/12/20 04:56:23;;;;;;;;;;;;;;;;;;5075318;28;44242;-73
2021/12/20 04:58:51;;;;;;;;;;;;;;;;;;5075909;28;43206;-74
2021/12/20 05:01:17;;;;;;;;;;;;;;;;;;5075687;28;48346;-74
2021/12/20 05:03:44;;;;;;;;;;;;;;;;;;5092380;28;45082;-73
2021/12/20 05:06:11;;;;;;;;;;;;;;;;;;5077133;28;44569;-73
2021/12/20 05:08:46;;;;;;;;;;;;;;;;;;5076572;28;43664;-73
2021/12/20 05:11:14;;;;;;;;;;;;;;;;;;5076153;28;46977;-73
2021/12/20 05:13:40;;;;;;;;;;;;;;;;;;5075264;28;47373;-73
2021/12/20 05:16:08;;;;;;;;;;;;;;;;;;5076079;28;44182;-73
2021/12/20 05:18:34;;;;;;;;;;;;;;;;;;5075801;28;43797;-73
2021/12/20 05:21:02;;;;;;;;;;;;;;;;;;5076590;28;47358;-74
2021/12/20 05:23:35;;;;;;;;;;;;;;;;;;5081588;28;45919;-74
2021/12/20 05:26:02;;;;;;;;;;;;;;;;;;5078445;28;44579;-74
2021/12/20 05:28:28;;;;;;;;;;;;;;;;;;5075759;28;46473;-74
2021/12/20 05:30:55;;;;;;;;;;;;;;;;;;5075133;28;47063;-74
2021/12/20 05:33:23;;;;;;;;;;;;;;;;;;5075614;28;49002;-74
2021/12/20 05:35:51;;;;;;;;;;;;;;;;;;5075861;28;43554;-73
2021/12/20 05:38:20;;;;;;;;;;;;;;;;;;5090303;28;45361;-74
2021/12/20 05:40:48;;;;;;;;;;;;;;;;;;5075092;28;47333;-74
2021/12/20 05:43:14;;;;;;;;;;;;;;;;;;5074977;28;45683;-74
2021/12/20 05:45:42;;;;;;;;;;;;;;;;;;5074735;28;43563;-74
2021/12/20 05:48:08;;;;;;;;;;;;;;;;;;5074267;28;45475;-74
2021/12/20 05:50:34;;;;;;;;;;;;;;;;;;5084994;28;48343;-73
2021/12/20 05:53:01;;;;;;;;;;;;;;;;;;5095505;28;46495;-73
2021/12/20 05:55:28;;;;;;;;;;;;;;;;;;5095275;28;43758;-74
2021/12/20 05:57:55;;;;;;;;;;;;;;;;;;5095041;28;45566;-74
2021/12/20 06:00:23;;;;;;;;;;;;;;;;;;5094493;28;47926;-74
2021/12/20 06:02:49;;;;;;;;;;;;;;;;;;5109779;28;47503;-74
2021/12/20 06:05:15;;;;;;;;;;;;;;;;;;5093193;28;46131;-74
2021/12/20 06:07:47;;;;;;;;;;;;;;;;;;5093856;28;46244;-74
2021/12/20 06:10:15;;;;;;;;;;;;;;;;;;5109638;28;47368;-74
2021/12/20 06:12:42;;;;;;;;;;;;;;;;;;5094776;28;45217;-74
2021/12/20 06:15:11;;;;;;;;;;;;;;;;;;5108624;28;44400;-73
2021/12/20 06:17:39;;;;;;;;;;;;;;;;;;5102910;28;45701;-75
2021/12/20 06:20:08;;;;;;;;;;;;;;;;;;5088777;28;45309;-75
2021/12/20 06:22:35;;;;;;;;;;;;;;;;;;5074271;28;47644;-74
2021/12/20 06:25:03;;;;;;;;;;;;;;;;;;5083398;28;42683;-74
2021/12/20 06:27:30;;;;;;;;;;;;;;;;;;5094269;28;43685;-74
2021/12/20 06:29:58;;;;;;;;;;;;;;;;;;5093550;28;49018;-74
2021/12/20 06:32:26;;;;;;;;;;;;;;;;;;5095785;28;47573;-72
2021/12/20 06:34:54;;;;;;;;;;;;;;;;;;5073053;28;44791;-72
2021/12/20 06:37:21;;;;;;;;;;;;;;;;;;5091870;28;46287;-76
2021/12/20 06:39:52;;;;;;;;;;;;;;;;;;5093945;28;45388;-74
2021/12/20 06:42:32;;;;;;;;;;;;;;;;;;5057327;28;45101;-74
2021/12/20 06:45:20;;;;;;;;;;;;;;;;;;5093795;28;20211;-73
2021/12/20 06:47:47;;;;;;;;;;;;;;;;;;5078409;28;44391;-73
2021/12/20 06:50:15;;;;;;;;;;;;;;;;;;5090857;28;47023;-73
2021/12/20 06:52:56;;;;;;;;;;;;;;;;;;5092492;28;46776;-73
2021/12/20 06:55:25;;;;;;;;;;;;;;;;;;5091782;28;43272;-74
2021/12/20 06:57:53;;;;;;;;;;;;;;;;;;5093103;28;44297;-74
2021/12/20 07:00:21;;;;;;;;;;;;;;;;;;5086185;28;47476;-73
2021/12/20 07:02:48;;;;;;;;;;;;;;;;;;5088750;28;44783;-74
2021/12/20 07:05:18;;;;;;;;;;;;;;;;;;5079403;28;44207;-74
2021/12/20 07:07:45;;;;;;;;;;;;;;;;;;5069572;28;45300;-74
2021/12/20 07:10:18;;;;;;;;;;;;;;;;;;5092392;28;47000;-73
2021/12/20 07:12:46;;;;;;;;;;;;;;;;;;5093520;28;47013;-74
2021/12/20 07:15:14;;;;;;;;;;;;;;;;;;5063438;28;43783;-75
2021/12/20 07:17:44;;;;;;;;;;;;;;;;;;5088235;28;46403;-73
2021/12/20 07:20:10;;;;;;;;;;;;;;;;;;5080660;28;48082;-74
2021/12/20 07:22:45;;;;;;;;;;;;;;;;;;5063821;28;47130;-74
2021/12/20 07:25:12;;;;;;;;;;;;;;;;;;5083475;28;43591;-74
2021/12/20 07:27:45;;;;;;;;;;;;;;;;;;5082996;28;45233;-74
2021/12/20 07:30:17;;;;;;;;;;;;;;;;;;5077470;28;47047;-74
2021/12/20 07:32:43;;;;;;;;;;;;;;;;;;5091185;28;46273;-74
2021/12/20 07:35:10;;;;;;;;;;;;;;;;;;5086629;28;45087;-73
2021/12/20 07:37:39;;;;;;;;;;;;;;;;;;5069740;28;44781;-74
2021/12/20 07:40:09;;;;;;;;;;;;;;;;;;5079705;28;47267;-73
2021/12/20 07:42:38;;;;;;;;;;;;;;;;;;5085358;28;45293;-73
2021/12/20 07:45:09;;;;;;;;;;;;;;;;;;5071583;28;44282;-73
2021/12/20 07:47:44;;;;;;;;;;;;;;;;;;5067016;28;45369;-73
2021/12/20 07:50:12;;;;;;;;;;;;;;;;;;5076727;28;49439;-74
2021/12/20 07:52:41;;;;;;;;;;;;;;;;;;5069055;28;47515;-73
2021/12/20 07:55:08;;;;;;;;;;;;;;;;;;5065614;28;44328;-73
2021/12/20 07:57:41;;;;;;;;;;;;;;;;;;5052305;28;45338;-74
2021/12/20 08:00:08;;;;;;;;;;;;;;;;;;5050802;28;47998;-74
2021/12/20 08:02:37;;;;;;;;;;;;;;;;;;5052543;28;45730;-73
2021/12/20 08:05:10;;;;;;;;;;;;;;;;;;5067575;28;42635;-74
2021/12/20 08:07:40;;;;;;;;;;;;;;;;;;5067525;28;44091;-74
2021/12/20 08:10:08;;;;;;;;;;;;;;;;;;5064290;28;44214;-73
2021/12/20 08:12:35;;;;;;;;;;;;;;;;;;5050610;28;44108;-74
2021/12/20 08:15:02;;;;;;;;;;;;;;;;;;5051784;28;43030;-74
2021/12/20 08:17:31;;;;;;;;;;;;;;;;;;5052914;28;43791;-75
2021/12/20 08:19:59;;;;;;;;;;;;;;;;;;5052069;28;47131;-75
2021/12/20 08:22:27;;;;;;;;;;;;;;;;;;5067849;28;44283;-75
2021/12/20 08:24:54;;;;;;;;;;;;;;;;;;5052577;28;42696;-75
2021/12/20 08:27:21;;;;;;;;;;;;;;;;;;5051236;28;43066;-74
2021/12/20 08:29:48;;;;;;;;;;;;;;;;;;5051754;28;47294;-74
2021/12/20 08:32:17;;;;;;;;;;;;;;;;;;5076783;28;46584;-74
2021/12/20 08:35:03;;;;;;;;;;;;;;;;;;5071173;28;19925;-73
2021/12/20 08:37:38;;;;;;;;;;;;;;;;;;5070349;28;44086;-73
2021/12/20 08:40:10;;;;;;;;;;;;;;;;;;5066694;28;46310;-73
2021/12/20 08:42:51;;;;;;;;;;;;;;;;;;5050004;28;47367;-74
2021/12/20 08:45:20;;;;;;;;;;;;;;;;;;5050511;28;42465;-73
2021/12/20 08:47:49;;;;;;;;;;;;;;;;;;5053042;28;45527;-74
2021/12/20 08:50:15;;;;;;;;;;;;;;;;;;5051836;28;46912;-74
2021/12/20 08:52:42;;;;;;;;;;;;;;;;;;5059628;28;47179;-74
2021/12/20 08:55:10;;;;;;;;;;;;;;;;;;5070638;28;43703;-73
2021/12/20 08:57:39;;;;;;;;;;;;;;;;;;5086616;28;43936;-73
2021/12/20 09:00:08;;;;;;;;;;;;;;;;;;5064799;28;45319;-73
2021/12/20 09:02:36;;;;;;;;;;;;;;;;;;5057465;28;47450;-73
2021/12/20 09:05:07;;;;;;;;;;;;;;;;;;5085353;28;42463;-73
2021/12/20 09:07:44;;;;;;;;;;;;;;;;;;5067689;28;44679;-73
2021/12/20 09:10:18;;;;;;;;;;;;;;;;;;5082885;28;47424;-73
2021/12/20 09:13:00;;;;;;;;;;;;;;;;;;5068237;28;19960;-73
2021/12/20 09:15:47;;;;;;;;;;;;;;;;;;5048478;28;19921;-73
2021/12/20 09:18:14;;;;;;;;;;;;;;;;;;5060562;28;43897;-73
2021/12/20 09:20:42;;;;;;;;;;;;;;;;;;5066314;28;47493;-73
2021/12/20 09:23:12;;;;;;;;;;;;;;;;;;5055732;28;44488;-74
2021/12/20 09:25:46;;;;;;;;;;;;;;;;;;5048886;28;46178;-73
2021/12/20 09:28:14;;;;;;;;;;;;;;;;;;5054915;28;45324;-73
2021/12/20 09:30:41;;;;;;;;;;;;;;;;;;5084418;28;47942;-75
2021/12/20 09:33:15;;;;;;;;;;;;;;;;;;5067113;28;45699;-74
2021/12/20 09:35:41;;;;;;;;;;;;;;;;;;5070505;28;43301;-72
2021/12/20 09:38:11;;;;;;;;;;;;;;;;;;5071058;28;44378;-72
2021/12/20 09:41:12;;;;;;;;;;;;;;;;;;5073827;28;45975;-75
2021/12/20 09:43:28;;;;;;;;;;;;;;;;;;5074252;28;45230;-73
2021/12/20 09:45:55;;;;;;;;;;;;;;;;;;5061820;28;43998;-73
2021/12/20 09:48:23;;;;;;;;;;;;;;;;;;5053866;28;43886;-73
2021/12/20 09:50:50;;;;;;;;;;;;;;;;;;5069360;28;45889;-73
2021/12/20 09:53:18;;;;;;;;;;;;;;;;;;5070911;28;47933;-73
2021/12/20 09:55:46;;;;;;;;;;;;;;;;;;5056091;28;43783;-73
2021/12/20 09:58:15;;;;;;;;;;;;;;;;;;5061519;28;44159;-74
2021/12/20 10:00:44;;;;;;;;;;;;;;;;;;5065544;28;46129;-73
2021/12/20 10:03:16;;;;;;;;;;;;;;;;;;5056519;28;46905;-73
2021/12/20 10:05:43;;;;;;;;;;;;;;;;;;5087547;28;41946;-73
2021/12/20 10:08:20;;;;;;;;;;;;;;;;;;5055167;28;46618;-72
2021/12/20 10:10:50;;;;;;;;;;;;;;;;;;5055513;28;47670;-72
2021/12/20 10:13:19;;;;;;;;;;;;;;;;;;5054862;28;45136;-73
2021/12/20 10:15:47;;;;;;;;;;;;;;;;;;5055617;28;45262;-72
2021/12/20 10:18:15;;;;;;;;;;;;;;;;;;5056621;28;44392;-72
2021/12/20 10:20:45;;;;;;;;;;;;;;;;;;5069842;28;46256;-72
2021/12/20 10:23:13;;;;;;;;;;;;;;;;;;5091106;28;44289;-72
2021/12/20 10:25:40;;;;;;;;;;;;;;;;;;5075278;28;44125;-72
2021/12/20 10:28:11;;;;;;;;;;;;;;;;;;5073893;28;41606;-73
2021/12/20 10:30:45;;;;;;;;;;;;;;;;;;5073115;28;46270;-73
2021/12/20 10:33:15;;;;;;;;;;;;;;;;;;5066300;28;47012;-72
2021/12/20 10:35:47;;;;;;;;;;;;;;;;;;5067555;28;44271;-72
2021/12/20 10:38:16;;;;;;;;;;;;;;;;;;5053149;28;45831;-72
2021/12/20 10:40:47;;;;;;;;;;;;;;;;;;5079529;28;46007;-72
2021/12/20 10:43:16;;;;;;;;;;;;;;;;;;5071985;28;44876;-73
2021/12/20 10:45:43;;;;;;;;;;;;;;;;;;5054386;28;43602;-72
2021/12/20 10:48:11;;;;;;;;;;;;;;;;;;5072809;28;44498;-73
2021/12/20 10:50:42;;;;;;;;;;;;;;;;;;5062631;28;46128;-72
2021/12/20 10:53:11;;;;;;;;;;;;;;;;;;5053358;28;44762;-72
2021/12/20 10:55:37;;;;;;;;;;;;;;;;;;5052555;28;44557;-73
2021/12/20 10:58:05;;;;;;;;;;;;;;;;;;5054405;28;43271;-73
2021/12/20 11:00:33;;;;;;;;;;;;;;;;;;5059149;28;43619;-73
2021/12/20 11:03:24;;;;;;;;;;;;;;;;;;5055678;28;46528;-73
2021/12/20 11:11:23;;;;;;;;;;;;;;;;;;5070719;28;44901;-74
2021/12/20 11:13:50;;;;;;;;;;;;;;;;;;5070317;28;45186;-73
2021/12/20 11:16:24;;;;;;;;;;;;;;;;;;5070695;28;43697;-74
2021/12/20 11:21:15;;;;;;;;;;;;;;;;;;5070254;28;20043;-73
2021/12/20 11:23:43;;;;;;;;;;;;;;;;;;5037076;28;46551;-74
2021/12/20 11:26:10;;;;;;;;;;;;;;;;;;5053954;28;44536;-73
2021/12/20 11:28:38;;;;;;;;;;;;;;;;;;5065595;28;42987;-74
2021/12/20 11:31:06;;;;;;;;;;;;;;;;;;5054433;28;44775;-74
2021/12/20 11:33:34;;;;;;;;;;;;;;;;;;5046059;28;46567;-73
2021/12/20 11:36:00;;;;;;;;;;;;;;;;;;5068378;28;45352;-73
2021/12/20 11:38:28;;;;;;;;;;;;;;;;;;5085980;28;44493;-73
2021/12/20 11:41:00;;;;;;;;;;;;;;;;;;5070057;28;46826;-74
2021/12/20 11:43:27;;;;;;;;;;;;;;;;;;5067468;28;45347;-74
2021/12/20 11:45:55;;;;;;;;;;;;;;;;;;5070244;28;43396;-73
2021/12/20 11:48:22;;;;;;;;;;;;;;;;;;5071639;28;45274;-73
2021/12/20 11:50:50;;;;;;;;;;;;;;;;;;5066656;28;45871;-74
2021/12/20 11:53:17;;;;;;;;;;;;;;;;;;5052903;28;46277;-74
2021/12/20 11:55:45;;;;;;;;;;;;;;;;;;5034478;28;45105;-73
2021/12/20 11:58:13;;;;;;;;;;;;;;;;;;5056944;28;44804;-75
2021/12/20 12:00:39;;;;;;;;;;;;;;;;;;5066762;28;47933;-74
2021/12/20 12:03:07;;;;;;;;;;;;;;;;;;5066880;28;46403;-74
2021/12/20 12:05:34;;;;;;;;;;;;;;;;;;5052225;28;44734;-74
2021/12/20 12:08:06;;;;;;;;;;;;;;;;;;5063203;28;44218;-74
2021/12/20 12:10:37;;;;;;;;;;;;;;;;;;5070465;28;47085;-73
2021/12/20 12:13:14;;;;;;;;;;;;;;;;;;5069051;28;46645;-73
2021/12/20 12:15:44;;;;;;;;;;;;;;;;;;5071918;28;43753;-73
2021/12/20 12:18:11;;;;;;;;;;;;;;;;;;5071057;28;43173;-74
2021/12/20 12:20:38;;;;;;;;;;;;;;;;;;5079310;28;47297;-73
2021/12/20 12:23:09;;;;;;;;;;;;;;;;;;5051815;28;46319;-73
2021/12/20 12:25:40;;;;;;;;;;;;;;;;;;5052668;28;43790;-73
2021/12/20 12:28:08;;;;;;;;;;;;;;;;;;5051667;28;44163;-74
2021/12/20 12:30:34;;;;;;;;;;;;;;;;;;5083676;28;47998;-73
2021/12/20 12:33:02;;;;;;;;;;;;;;;;;;5055090;28;46452;-73
2021/12/20 12:35:33;;;;;;;;;;;;;;;;;;5069156;28;44002;-74
2021/12/20 12:38:01;;;;;;;;;;;;;;;;;;5069343;28;45251;-73
2021/12/20 12:40:31;;;;;;;;;;;;;;;;;;5053897;28;47175;-73
2021/12/20 12:43:00;;;;;;;;;;;;;;;;;;5049336;28;47818;-73
2021/12/20 12:45:28;;;;;;;;;;;;;;;;;;5049238;28;45631;-73
2021/12/20 12:48:00;;;;;;;;;;;;;;;;;;5050220;28;46587;-73
2021/12/20 12:50:28;;;;;;;;;;;;;;;;;;5051009;28;47275;-73
2021/12/20 12:52:55;;;;;;;;;;;;;;;;;;5051070;28;47713;-74
2021/12/20 12:55:22;;;;;;;;;;;;;;;;;;5070217;28;42111;-74
2021/12/20 12:58:02;;;;;;;;;;;;;;;;;;5071967;28;19925;-74
2021/12/20 13:00:29;;;;;;;;;;;;;;;;;;5071920;28;48248;-74
2021/12/20 13:02:55;;;;;;;;;;;;;;;;;;5059587;28;46503;-75
2021/12/20 13:05:25;;;;;;;;;;;;;;;;;;5070852;28;42679;-75
2021/12/20 13:07:56;;;;;;;;;;;;;;;;;;5066816;28;44256;-73
2021/12/20 13:10:30;;;;;;;;;;;;;;;;;;5062023;28;46421;-73
2021/12/20 13:12:59;;;;;;;;;;;;;;;;;;5053393;28;44995;-74
2021/12/20 13:15:51;;;;;;;;;;;;;;;;;;5054271;28;43298;-74
2021/12/20 13:18:31;;;;;;;;;;;;;;;;;;5055162;28;46616;-74
2021/12/20 13:21:08;;;;;;;;;;;;;;;;;;5054194;28;46528;-74
2021/12/20 13:23:35;;;;;;;;;;;;;;;;;;5053759;28;46292;-74
2021/12/20 13:26:05;;;;;;;;;;;;;;;;;;5054847;28;41795;-74
2021/12/20 13:28:33;;;;;;;;;;;;;;;;;;5071933;28;43397;-73
2021/12/20 13:31:00;;;;;;;;;;;;;;;;;;5076626;28;47453;-73
2021/12/20 13:33:34;;;;;;;;;;;;;;;;;;5071423;28;45236;-74
2021/12/20 13:36:00;;;;;;;;;;;;;;;;;;5086588;28;43654;-74
2021/12/20 13:38:29;;;;;;;;;;;;;;;;;;5074455;28;44457;-74
2021/12/20 13:41:02;;;;;;;;;;;;;;;;;;5068169;28;46106;-74
2021/12/20 13:43:39;;;;;;;;;;;;;;;;;;5088813;28;45750;-74
2021/12/20 13:46:10;;;;;;;;;;;;;;;;;;5089472;28;41157;-74
2021/12/20 13:48:37;;;;;;;;;;;;;;;;;;5087576;28;44308;-74
2021/12/20 13:51:05;;;;;;;;;;;;;;;;;;5068324;28;47352;-74
2021/12/20 13:53:46;;;;;;;;;;;;;;;;;;5060629;28;20015;-74
2021/12/20 13:56:14;;;;;;;;;;;;;;;;;;5073537;28;42488;-74
2021/12/20 13:58:41;;;;;;;;;;;;;;;;;;5073414;28;47750;-73
2021/12/20 14:01:10;;;;;;;;;;;;;;;;;;5055570;28;48448;-74
2021/12/20 14:03:38;;;;;;;;;;;;;;;;;;5073776;28;46973;-74
2021/12/20 14:06:04;;;;;;;;;;;;;;;;;;5073298;28;43640;-74
2021/12/20 14:08:41;;;;;;;;;;;;;;;;;;5072993;28;45572;-73
2021/12/20 14:11:14;;;;;;;;;;;;;;;;;;5045962;28;49137;-73
2021/12/20 14:13:44;;;;;;;;;;;;;;;;;;5072363;28;47745;-72
2021/12/20 14:16:17;;;;;;;;;;;;;;;;;;5056609;28;41801;-72
2021/12/20 14:18:44;;;;;;;;;;;;;;;;;;5071884;28;43733;-73
2021/12/20 14:21:12;;;;;;;;;;;;;;;;;;5055763;28;47502;-73
2021/12/20 14:23:44;;;;;;;;;;;;;;;;;;5055577;28;46486;-73
2021/12/20 14:26:10;;;;;;;;;;;;;;;;;;5080108;28;43922;-72
2021/12/20 14:28:39;;;;;;;;;;;;;;;;;;5077082;28;45710;-74
2021/12/20 14:31:07;;;;;;;;;;;;;;;;;;5077901;28;45697;-72
2021/12/20 14:33:49;;;;;;;;;;;;;;;;;;5073002;28;19943;-73
2021/12/20 14:36:23;;;;;;;;;;;;;;;;;;5041025;28;43618;-73
2021/12/20 14:38:52;;;;;;;;;;;;;;;;;;5057480;28;44312;-76
2021/12/20 14:41:21;;;;;;;;;;;;;;;;;;5054797;28;46313;-74
2021/12/20 14:43:48;;;;;;;;;;;;;;;;;;5054216;28;45886;-74
2021/12/20 14:46:24;;;;;;;;;;;;;;;;;;5053215;28;41395;-75
2021/12/20 14:48:58;;;;;;;;;;;;;;;;;;5052036;28;45384;-74
2021/12/20 14:51:28;;;;;;;;;;;;;;;;;;5051388;28;47169;-74
2021/12/20 14:53:55;;;;;;;;;;;;;;;;;;5067593;28;46816;-74
2021/12/20 14:56:24;;;;;;;;;;;;;;;;;;5087015;28;43627;-73
2021/12/20 14:59:00;;;;;;;;;;;;;;;;;;5068023;28;42954;-74
2021/12/20 15:01:27;;;;;;;;;;;;;;;;;;5073588;28;48199;-73
2021/12/20 15:03:56;;;;;;;;;;;;;;;;;;5061131;28;47578;-73
2021/12/20 15:06:29;;;;;;;;;;;;;;;;;;5071917;28;42812;-73
2021/12/20 15:08:58;;;;;;;;;;;;;;;;;;5072508;28;45224;-73
2021/12/20 15:11:29;;;;;;;;;;;;;;;;;;5061424;28;47183;-73
2021/12/20 15:14:14;;;;;;;;;;;;;;;;;;5052451;28;44300;-73
2021/12/20 15:16:44;;;;;;;;;;;;;;;;;;5061723;28;43661;-74
2021/12/20 15:19:10;;;;;;;;;;;;;;;;;;5054699;28;45388;-73
2021/12/20 15:21:36;;;;;;;;;;;;;;;;;;5066221;28;46283;-73
2021/12/20 15:24:03;;;;;;;;;;;;;;;;;;5072698;28;43832;-73
2021/12/20 15:26:34;;;;;;;;;;;;;;;;;;5071862;28;44474;-74
2021/12/20 15:29:06;;;;;;;;;;;;;;;;;;5054137;28;45316;-74
2021/12/20 15:31:33;;;;;;;;;;;;;;;;;;5074643;28;47617;-75
2021/12/20 15:34:00;;;;;;;;;;;;;;;;;;5078227;28;46687;-74
2021/12/20 15:36:32;;;;;;;;;;;;;;;;;;5071912;28;44758;-74
2021/12/20 15:39:00;;;;;;;;;;;;;;;;;;5071533;28;45949;-74
2021/12/20 15:41:31;;;;;;;;;;;;;;;;;;5071735;28;44355;-73
2021/12/20 15:44:02;;;;;;;;;;;;;;;;;;5066168;28;47363;-74
2021/12/20 15:46:31;;;;;;;;;;;;;;;;;;5066176;28;44070;-73
2021/12/20 15:49:03;;;;;;;;;;;;;;;;;;5052497;28;42102;-73
2021/12/20 15:51:31;;;;;;;;;;;;;;;;;;5068416;28;46221;-73
2021/12/20 15:53:59;;;;;;;;;;;;;;;;;;5071510;28;48180;-73
2021/12/20 15:56:26;;;;;;;;;;;;;;;;;;5070256;28;40313;-73
2021/12/20 15:59:12;;;;;;;;;;;;;;;;;;5071334;28;42914;-74
2021/12/20 16:01:56;;;;;;;;;;;;;;;;;;5069026;28;19928;-73
2021/12/20 16:04:54;;;;;;;;;;;;;;;;;;5067097;28;19935;-74
2021/12/20 16:07:21;;;;;;;;;;;;;;;;;;5074738;28;44648;-74
2021/12/20 16:09:48;;;;;;;;;;;;;;;;;;5070176;28;43247;-74
2021/12/20 16:12:15;;;;;;;;;;;;;;;;;;5068880;28;47077;-74
2021/12/20 16:14:47;;;;;;;;;;;;;;;;;;5049537;28;47584;-74
2021/12/20 16:17:14;;;;;;;;;;;;;;;;;;5049634;28;43870;-75
2021/12/20 16:19:42;;;;;;;;;;;;;;;;;;5064312;28;42588;-74
2021/12/20 16:22:10;;;;;;;;;;;;;;;;;;5071482;28;47297;-74
2021/12/20 16:24:36;;;;;;;;;;;;;;;;;;5087542;28;44783;-74
2021/12/20 16:27:06;;;;;;;;;;;;;;;;;;5071671;28;44387;-74
2021/12/20 16:29:32;;;;;;;;;;;;;;;;;;5069820;28;44340;-74
2021/12/20 16:32:00;;;;;;;;;;;;;;;;;;5084690;28;48313;-74
2021/12/20 16:34:27;;;;;;;;;;;;;;;;;;5051172;28;45529;-74
2021/12/20 16:36:56;;;;;;;;;;;;;;;;;;5061049;28;41916;-74
2021/12/20 16:39:22;;;;;;;;;;;;;;;;;;5071870;28;44213;-74
2021/12/20 16:41:50;;;;;;;;;;;;;;;;;;5053674;28;48004;-74
2021/12/20 16:44:22;;;;;;;;;;;;;;;;;;5072043;28;45096;-74
2021/12/20 16:46:57;;;;;;;;;;;;;;;;;;5047934;28;45529;-74
2021/12/20 16:49:27;;;;;;;;;;;;;;;;;;5075345;28;43703;-74
2021/12/20 16:52:07;;;;;;;;;;;;;;;;;;5069183;28;46048;-75
2021/12/20 16:54:36;;;;;;;;;;;;;;;;;;5054819;28;45184;-74
2021/12/20 16:57:03;;;;;;;;;;;;;;;;;;5054518;28;43108;-75
2021/12/20 16:59:31;;;;;;;;;;;;;;;;;;5071370;28;42914;-75
2021/12/20 17:01:59;;;;;;;;;;;;;;;;;;5070661;28;48071;-75
2021/12/20 17:04:39;;;;;;;;;;;;;;;;;;5055439;28;45205;-74
2021/12/20 17:07:08;;;;;;;;;;;;;;;;;;5054652;28;44164;-75
2021/12/20 17:09:34;;;;;;;;;;;;;;;;;;5054392;28;46151;-75
2021/12/20 17:12:01;;;;;;;;;;;;;;;;;;5054482;28;47582;-75
2021/12/20 17:14:30;;;;;;;;;;;;;;;;;;5072911;28;46657;-75
2021/12/20 17:16:57;;;;;;;;;;;;;;;;;;5054882;28;43563;-75
2021/12/20 17:19:25;;;;;;;;;;;;;;;;;;5080057;28;44444;-74